sensor_id;sensor_type;location;lat;lon;timestamp;pressure;altitude;pressure_sealevel;temperature;humidity
32761;BME280;19126;47.472;7.850;2022-12-11T00:01:28;95906.41;;;-2.39;73.49
32761;BME280;19126;47.472;7.850;2022-12-11T00:03:55;95915.66;;;-2.36;74.45
32761;BME280;19126;47.472;7.850;2022-12-11T00:06:23;95919.38;;;-2.40;74.89
32761;BME280;19126;47.472;7.850;2022-12-11T00:08:51;95920.06;;;-2.49;77.35
32761;BME280;19126;47.472;7.850;2022-12-11T00:11:21;95927.06;;;-2.52;78.65
32761;BME280;19126;47.472;7.850;2022-12-11T00:13:57;95923.50;;;-2.62;79.64
32761;BME280;19126;47.472;7.850;2022-12-11T00:16:31;95922.97;;;-2.67;81.53
32761;BME280;19126;47.472;7.850;2022-12-11T00:19:02;95934.91;;;-2.66;82.90
32761;BME280;19126;47.472;7.850;2022-12-11T00:21:40;95937.09;;;-2.73;83.05
32761;BME280;19126;47.472;7.850;2022-12-11T00:24:12;95921.22;;;-2.91;84.92
32761;BME280;19126;47.472;7.850;2022-12-11T00:26:44;95921.56;;;-2.96;86.71
32761;BME280;19126;47.472;7.850;2022-12-11T00:29:15;95930.50;;;-3.01;89.56
32761;BME280;19126;47.472;7.850;2022-12-11T00:31:42;95929.50;;;-3.12;91.18
32761;BME280;19126;47.472;7.850;2022-12-11T00:34:10;95919.56;;;-3.29;93.43
32761;BME280;19126;47.472;7.850;2022-12-11T00:36:37;95925.69;;;-3.43;95.91
32761;BME280;19126;47.472;7.850;2022-12-11T00:39:05;95921.16;;;-3.53;97.72
32761;BME280;19126;47.472;7.850;2022-12-11T00:41:33;95924.44;;;-3.63;100.00
32761;BME280;19126;47.472;7.850;2022-12-11T00:44:03;95920.56;;;-3.69;100.00
32761;BME280;19126;47.472;7.850;2022-12-11T00:46:30;95916.97;;;-3.79;100.00
32761;BME280;19126;47.472;7.850;2022-12-11T00:49:04;95914.88;;;-4.00;100.00
32761;BME280;19126;47.472;7.850;2022-12-11T00:51:42;95907.00;;;-4.10;100.00
32761;BME280;19126;47.472;7.850;2022-12-11T00:54:10;95916.63;;;-4.14;100.00
32761;BME280;19126;47.472;7.850;2022-12-11T00:56:38;95919.69;;;-4.21;100.00
32761;BME280;19126;47.472;7.850;2022-12-11T00:59:14;95915.97;;;-4.30;100.00
32761;BME280;19126;47.472;7.850;2022-12-11T01:01:46;95909.59;;;-4.37;100.00
32761;BME280;19126;47.472;7.850;2022-12-11T01:04:13;95931.03;;;-4.38;100.00
32761;BME280;19126;47.472;7.850;2022-12-11T01:06:43;95937.59;;;-4.47;100.00
32761;BME280;19126;47.472;7.850;2022-12-11T01:09:10;95945.66;;;-4.53;100.00
32761;BME280;19126;47.472;7.850;2022-12-11T01:12:00;95944.41;;;-4.61;100.00
32761;BME280;19126;47.472;7.850;2022-12-11T01:14:36;95939.88;;;-4.70;100.00
32761;BME280;19126;47.472;7.850;2022-12-11T01:17:03;95942.28;;;-4.81;100.00
32761;BME280;19126;47.472;7.850;2022-12-11T01:19:32;95951.81;;;-4.83;100.00
32761;BME280;19126;47.472;7.850;2022-12-11T01:21:59;95954.03;;;-4.92;100.00
32761;BME280;19126;47.472;7.850;2022-12-11T01:24:30;95953.56;;;-4.98;100.00
32761;BME280;19126;47.472;7.850;2022-12-11T01:27:05;95952.59;;;-5.10;100.00
32761;BME280;19126;47.472;7.850;2022-12-11T01:29:34;95957.91;;;-5.13;100.00
32761;BME280;19126;47.472;7.850;2022-12-11T01:32:02;95952.13;;;-5.17;100.00
32761;BME280;19126;47.472;7.850;2022-12-11T01:34:29;95955.00;;;-5.22;100.00
32761;BME280;19126;47.472;7.850;2022-12-11T01:37:03;95965.22;;;-5.22;100.00
32761;BME280;19126;47.472;7.850;2022-12-11T01:39:31;95966.41;;;-5.27;100.00
32761;BME280;19126;47.472;7.850;2022-12-11T01:41:59;95970.63;;;-5.26;100.00
32761;BME280;19126;47.472;7.850;2022-12-11T01:48:01;95979.47;;;-5.32;100.00
32761;BME280;19126;47.472;7.850;2022-12-11T01:50:33;95984.44;;;-5.29;100.00
32761;BME280;19126;47.472;7.850;2022-12-11T01:53:05;95982.03;;;-5.32;100.00
32761;BME280;19126;47.472;7.850;2022-12-11T01:55:33;95976.91;;;-5.32;100.00
32761;BME280;19126;47.472;7.850;2022-12-11T01:58:02;95988.91;;;-5.33;100.00
32761;BME280;19126;47.472;7.850;2022-12-11T02:00:29;95982.41;;;-5.38;100.00
32761;BME280;19126;47.472;7.850;2022-12-11T02:05:42;95970.69;;;-5.42;100.00
32761;BME280;19126;47.472;7.850;2022-12-11T02:08:32;95983.78;;;-5.18;100.00
32761;BME280;19126;47.472;7.850;2022-12-11T02:11:23;95974.00;;;-5.11;100.00
32761;BME280;19126;47.472;7.850;2022-12-11T02:17:13;95984.78;;;-5.06;100.00
32761;BME280;19126;47.472;7.850;2022-12-11T02:20:11;95986.25;;;-5.02;99.70
32761;BME280;19126;47.472;7.850;2022-12-11T02:23:56;95985.59;;;-5.06;97.47
32761;BME280;19126;47.472;7.850;2022-12-11T02:27:13;95969.84;;;-5.00;94.86
32761;BME280;19126;47.472;7.850;2022-12-11T02:30:04;95982.56;;;-4.83;92.71
32761;BME280;19126;47.472;7.850;2022-12-11T02:32:51;95967.00;;;-4.80;90.31
32761;BME280;19126;47.472;7.850;2022-12-11T02:36:07;95980.28;;;-4.61;88.10
32761;BME280;19126;47.472;7.850;2022-12-11T02:39:10;95989.13;;;-4.52;85.62
32761;BME280;19126;47.472;7.850;2022-12-11T02:42:12;95976.22;;;-4.50;83.85
32761;BME280;19126;47.472;7.850;2022-12-11T02:45:04;95968.88;;;-4.42;82.50
32761;BME280;19126;47.472;7.850;2022-12-11T02:48:15;95970.03;;;-4.33;81.10
32761;BME280;19126;47.472;7.850;2022-12-11T02:50:55;95976.13;;;-4.21;78.95
32761;BME280;19126;47.472;7.850;2022-12-11T02:53:30;95981.38;;;-4.10;77.76
32761;BME280;19126;47.472;7.850;2022-12-11T02:56:21;95972.84;;;-4.10;77.42
32761;BME280;19126;47.472;7.850;2022-12-11T02:59:24;95952.53;;;-4.14;77.00
32761;BME280;19126;47.472;7.850;2022-12-11T03:02:18;95966.31;;;-4.02;76.36
32761;BME280;19126;47.472;7.850;2022-12-11T03:04:52;95961.97;;;-4.01;76.83
32761;BME280;19126;47.472;7.850;2022-12-11T03:07:38;95972.47;;;-3.91;75.28
32761;BME280;19126;47.472;7.850;2022-12-11T03:14:08;95966.03;;;-3.84;74.01
32761;BME280;19126;47.472;7.850;2022-12-11T03:16:46;95954.22;;;-3.87;74.01
32761;BME280;19126;47.472;7.850;2022-12-11T03:20:01;95977.00;;;-3.82;73.49
32761;BME280;19126;47.472;7.850;2022-12-11T03:23:26;95974.34;;;-3.80;73.14
32761;BME280;19126;47.472;7.850;2022-12-11T03:26:28;95990.88;;;-3.72;72.65
32761;BME280;19126;47.472;7.850;2022-12-11T03:31:30;95989.03;;;-3.70;72.29
32761;BME280;19126;47.472;7.850;2022-12-11T03:32:37;95985.13;;;-3.62;72.33
32761;BME280;19126;47.472;7.850;2022-12-11T03:35:45;95989.97;;;-3.58;71.89
32761;BME280;19126;47.472;7.850;2022-12-11T03:38:40;95994.69;;;-3.51;72.24
32761;BME280;19126;47.472;7.850;2022-12-11T03:45:20;95994.19;;;-3.57;74.22
32761;BME280;19126;47.472;7.850;2022-12-11T03:48:26;95992.34;;;-3.55;74.88
32761;BME280;19126;47.472;7.850;2022-12-11T03:51:15;95989.34;;;-3.61;77.39
32761;BME280;19126;47.472;7.850;2022-12-11T03:54:33;95994.78;;;-3.66;78.36
32761;BME280;19126;47.472;7.850;2022-12-11T03:57:39;96001.47;;;-3.76;82.44
32761;BME280;19126;47.472;7.850;2022-12-11T04:00:48;95993.94;;;-3.92;83.92
32761;BME280;19126;47.472;7.850;2022-12-11T04:04:06;95976.66;;;-4.03;86.63
32761;BME280;19126;47.472;7.850;2022-12-11T04:10:52;95986.50;;;-4.10;89.18
32761;BME280;19126;47.472;7.850;2022-12-11T04:13:42;95978.47;;;-4.18;89.66
32761;BME280;19126;47.472;7.850;2022-12-11T04:16:35;95976.00;;;-4.20;90.21
32761;BME280;19126;47.472;7.850;2022-12-11T04:19:22;95977.97;;;-4.23;90.65
32761;BME280;19126;47.472;7.850;2022-12-11T04:22:26;95979.28;;;-4.31;91.37
32761;BME280;19126;47.472;7.850;2022-12-11T04:25:11;95985.31;;;-4.32;91.37
32761;BME280;19126;47.472;7.850;2022-12-11T04:27:54;95983.69;;;-4.33;91.79
32761;BME280;19126;47.472;7.850;2022-12-11T04:33:41;95973.81;;;-4.39;91.90
32761;BME280;19126;47.472;7.850;2022-12-11T04:36:22;95981.50;;;-4.39;93.30
32761;BME280;19126;47.472;7.850;2022-12-11T04:38:59;95995.13;;;-4.38;93.42
32761;BME280;19126;47.472;7.850;2022-12-11T04:41:35;95988.31;;;-4.52;93.61
32761;BME280;19126;47.472;7.850;2022-12-11T04:44:24;95994.25;;;-4.52;94.48
32761;BME280;19126;47.472;7.850;2022-12-11T04:46:54;96001.16;;;-4.52;94.80
32761;BME280;19126;47.472;7.850;2022-12-11T04:49:23;95997.75;;;-4.53;95.59
32761;BME280;19126;47.472;7.850;2022-12-11T04:51:51;95987.06;;;-4.60;96.12
32761;BME280;19126;47.472;7.850;2022-12-11T04:54:18;95992.91;;;-4.58;95.91
32761;BME280;19126;47.472;7.850;2022-12-11T04:56:45;95991.09;;;-4.56;96.66
32761;BME280;19126;47.472;7.850;2022-12-11T04:59:14;95982.75;;;-4.59;96.98
32761;BME280;19126;47.472;7.850;2022-12-11T05:01:43;95974.13;;;-4.58;96.84
32761;BME280;19126;47.472;7.850;2022-12-11T05:04:10;95973.41;;;-4.60;96.85
32761;BME280;19126;47.472;7.850;2022-12-11T05:06:39;95970.78;;;-4.59;95.96
32761;BME280;19126;47.472;7.850;2022-12-11T05:09:10;95965.53;;;-4.57;95.74
32761;BME280;19126;47.472;7.850;2022-12-11T05:11:44;95957.75;;;-4.56;95.63
32761;BME280;19126;47.472;7.850;2022-12-11T05:14:20;95947.91;;;-4.62;95.89
32761;BME280;19126;47.472;7.850;2022-12-11T05:17:04;95963.81;;;-4.57;96.08
32761;BME280;19126;47.472;7.850;2022-12-11T05:19:38;95968.44;;;-4.49;95.29
32761;BME280;19126;47.472;7.850;2022-12-11T05:22:09;95966.97;;;-4.53;94.39
32761;BME280;19126;47.472;7.850;2022-12-11T05:24:50;95959.22;;;-4.51;95.45
32761;BME280;19126;47.472;7.850;2022-12-11T05:27:44;95952.72;;;-4.57;95.76
32761;BME280;19126;47.472;7.850;2022-12-11T05:30:41;95964.34;;;-4.51;96.32
32761;BME280;19126;47.472;7.850;2022-12-11T05:33:25;95952.00;;;-4.59;96.21
32761;BME280;19126;47.472;7.850;2022-12-11T05:35:52;95949.75;;;-4.51;96.20
32761;BME280;19126;47.472;7.850;2022-12-11T05:38:35;95956.66;;;-4.51;95.46
32761;BME280;19126;47.472;7.850;2022-12-11T05:41:07;95955.72;;;-4.50;96.05
32761;BME280;19126;47.472;7.850;2022-12-11T05:43:41;95961.66;;;-4.50;96.01
32761;BME280;19126;47.472;7.850;2022-12-11T05:46:20;95950.16;;;-4.57;97.24
32761;BME280;19126;47.472;7.850;2022-12-11T05:49:34;95957.56;;;-4.52;97.39
32761;BME280;19126;47.472;7.850;2022-12-11T05:52:27;95949.34;;;-4.58;97.97
32761;BME280;19126;47.472;7.850;2022-12-11T05:55:11;95952.81;;;-4.59;98.58
32761;BME280;19126;47.472;7.850;2022-12-11T05:57:44;95942.03;;;-4.64;99.29
32761;BME280;19126;47.472;7.850;2022-12-11T06:00:23;95959.06;;;-4.63;99.77
32761;BME280;19126;47.472;7.850;2022-12-11T06:03:05;95956.06;;;-4.69;99.37
32761;BME280;19126;47.472;7.850;2022-12-11T06:05:38;95957.50;;;-4.65;99.61
32761;BME280;19126;47.472;7.850;2022-12-11T06:08:09;95961.28;;;-4.71;99.39
32761;BME280;19126;47.472;7.850;2022-12-11T06:10:46;95951.03;;;-4.71;99.33
32761;BME280;19126;47.472;7.850;2022-12-11T06:13:23;95966.84;;;-4.64;98.85
32761;BME280;19126;47.472;7.850;2022-12-11T06:16:47;95973.72;;;-4.65;98.54
32761;BME280;19126;47.472;7.850;2022-12-11T06:19:45;95959.44;;;-4.69;98.45
32761;BME280;19126;47.472;7.850;2022-12-11T06:22:17;95950.13;;;-4.70;97.49
32761;BME280;19126;47.472;7.850;2022-12-11T06:28:40;95967.09;;;-4.54;97.40
32761;BME280;19126;47.472;7.850;2022-12-11T06:31:29;95966.44;;;-4.58;97.42
32761;BME280;19126;47.472;7.850;2022-12-11T06:35:00;95953.59;;;-4.71;98.45
32761;BME280;19126;47.472;7.850;2022-12-11T06:41:27;95977.81;;;-4.62;97.95
32761;BME280;19126;47.472;7.850;2022-12-11T06:44:19;95960.56;;;-4.73;98.17
32761;BME280;19126;47.472;7.850;2022-12-11T06:47:17;95969.78;;;-4.71;97.99
32761;BME280;19126;47.472;7.850;2022-12-11T06:49:51;95962.47;;;-4.77;98.74
32761;BME280;19126;47.472;7.850;2022-12-11T06:52:39;95972.47;;;-4.72;98.26
32761;BME280;19126;47.472;7.850;2022-12-11T06:55:07;95970.63;;;-4.70;97.92
32761;BME280;19126;47.472;7.850;2022-12-11T06:57:45;95960.56;;;-4.73;96.78
32761;BME280;19126;47.472;7.850;2022-12-11T07:00:21;95956.78;;;-4.67;97.27
32761;BME280;19126;47.472;7.850;2022-12-11T07:03:06;95960.91;;;-4.65;97.11
32761;BME280;19126;47.472;7.850;2022-12-11T07:05:44;95964.19;;;-4.63;97.04
32761;BME280;19126;47.472;7.850;2022-12-11T07:08:14;95971.78;;;-4.61;96.81
32761;BME280;19126;47.472;7.850;2022-12-11T07:10:49;95961.72;;;-4.64;97.09
32761;BME280;19126;47.472;7.850;2022-12-11T07:13:22;95971.16;;;-4.65;97.07
32761;BME280;19126;47.472;7.850;2022-12-11T07:15:53;95955.06;;;-4.67;96.96
32761;BME280;19126;47.472;7.850;2022-12-11T07:18:20;95966.38;;;-4.57;96.64
32761;BME280;19126;47.472;7.850;2022-12-11T07:20:49;95965.00;;;-4.62;97.05
32761;BME280;19126;47.472;7.850;2022-12-11T07:23:20;95961.81;;;-4.66;97.86
32761;BME280;19126;47.472;7.850;2022-12-11T07:25:48;95974.91;;;-4.71;99.40
32761;BME280;19126;47.472;7.850;2022-12-11T07:28:15;95961.81;;;-4.66;99.31
32761;BME280;19126;47.472;7.850;2022-12-11T07:30:43;95965.72;;;-4.60;99.47
32761;BME280;19126;47.472;7.850;2022-12-11T07:33:10;95967.47;;;-4.61;98.84
32761;BME280;19126;47.472;7.850;2022-12-11T07:35:37;95974.78;;;-4.54;99.70
32761;BME280;19126;47.472;7.850;2022-12-11T07:38:08;95972.09;;;-4.53;99.39
32761;BME280;19126;47.472;7.850;2022-12-11T07:40:35;95974.41;;;-4.48;99.47
32761;BME280;19126;47.472;7.850;2022-12-11T07:43:03;95976.38;;;-4.39;99.72
32761;BME280;19126;47.472;7.850;2022-12-11T07:45:30;95972.50;;;-4.32;99.03
32761;BME280;19126;47.472;7.850;2022-12-11T07:48:00;95975.47;;;-4.25;98.96
32761;BME280;19126;47.472;7.850;2022-12-11T07:50:27;95984.94;;;-4.25;99.18
32761;BME280;19126;47.472;7.850;2022-12-11T07:52:55;95988.03;;;-4.20;99.02
32761;BME280;19126;47.472;7.850;2022-12-11T07:55:23;95992.63;;;-4.13;98.47
32761;BME280;19126;47.472;7.850;2022-12-11T07:57:51;95989.69;;;-4.06;98.35
32761;BME280;19126;47.472;7.850;2022-12-11T08:00:19;95993.69;;;-4.02;99.11
32761;BME280;19126;47.472;7.850;2022-12-11T08:02:46;95995.06;;;-3.97;98.96
32761;BME280;19126;47.472;7.850;2022-12-11T08:05:14;95987.88;;;-3.91;99.47
32761;BME280;19126;47.472;7.850;2022-12-11T08:07:41;95994.38;;;-3.86;99.67
32761;BME280;19126;47.472;7.850;2022-12-11T08:10:09;95997.44;;;-3.80;100.00
32761;BME280;19126;47.472;7.850;2022-12-11T08:12:38;95998.06;;;-3.77;100.00
32761;BME280;19126;47.472;7.850;2022-12-11T08:15:07;95997.03;;;-3.74;100.00
32761;BME280;19126;47.472;7.850;2022-12-11T08:17:34;96000.13;;;-3.69;100.00
32761;BME280;19126;47.472;7.850;2022-12-11T08:20:05;96002.50;;;-3.66;100.00
32761;BME280;19126;47.472;7.850;2022-12-11T08:22:33;96004.03;;;-3.63;100.00
32761;BME280;19126;47.472;7.850;2022-12-11T08:25:01;96000.75;;;-3.65;100.00
32761;BME280;19126;47.472;7.850;2022-12-11T08:27:28;96003.31;;;-3.65;100.00
32761;BME280;19126;47.472;7.850;2022-12-11T08:29:57;95997.69;;;-3.58;100.00
32761;BME280;19126;47.472;7.850;2022-12-11T08:32:25;95991.41;;;-3.54;100.00
32761;BME280;19126;47.472;7.850;2022-12-11T08:34:54;95991.94;;;-3.48;100.00
32761;BME280;19126;47.472;7.850;2022-12-11T08:37:21;95991.50;;;-3.42;100.00
32761;BME280;19126;47.472;7.850;2022-12-11T08:39:49;95989.53;;;-3.39;100.00
32761;BME280;19126;47.472;7.850;2022-12-11T08:42:17;95988.41;;;-3.34;100.00
32761;BME280;19126;47.472;7.850;2022-12-11T08:44:45;95989.56;;;-3.26;100.00
32761;BME280;19126;47.472;7.850;2022-12-11T08:47:18;95980.38;;;-3.17;100.00
32761;BME280;19126;47.472;7.850;2022-12-11T08:49:49;95983.38;;;-3.23;100.00
32761;BME280;19126;47.472;7.850;2022-12-11T08:52:18;95984.50;;;-3.27;100.00
32761;BME280;19126;47.472;7.850;2022-12-11T08:54:45;95989.53;;;-3.13;100.00
32761;BME280;19126;47.472;7.850;2022-12-11T08:57:17;95982.22;;;-3.06;100.00
32761;BME280;19126;47.472;7.850;2022-12-11T08:59:46;95975.31;;;-3.05;100.00
32761;BME280;19126;47.472;7.850;2022-12-11T09:02:40;95969.06;;;-3.01;100.00
32761;BME280;19126;47.472;7.850;2022-12-11T09:05:09;95973.56;;;-2.92;100.00
32761;BME280;19126;47.472;7.850;2022-12-11T09:07:42;95972.31;;;-2.86;100.00
32761;BME280;19126;47.472;7.850;2022-12-11T09:10:11;95964.19;;;-2.80;100.00
32761;BME280;19126;47.472;7.850;2022-12-11T09:12:39;95976.91;;;-2.78;100.00
32761;BME280;19126;47.472;7.850;2022-12-11T09:15:07;95972.88;;;-2.70;100.00
32761;BME280;19126;47.472;7.850;2022-12-11T09:17:36;95970.13;;;-2.80;100.00
32761;BME280;19126;47.472;7.850;2022-12-11T09:20:04;95968.13;;;-3.00;100.00
32761;BME280;19126;47.472;7.850;2022-12-11T09:22:32;95970.19;;;-3.05;100.00
32761;BME280;19126;47.472;7.850;2022-12-11T09:24:59;95969.97;;;-3.02;100.00
32761;BME280;19126;47.472;7.850;2022-12-11T09:27:26;95973.34;;;-2.89;100.00
32761;BME280;19126;47.472;7.850;2022-12-11T09:29:54;95966.41;;;-2.75;100.00
32761;BME280;19126;47.472;7.850;2022-12-11T09:32:25;95967.84;;;-2.71;100.00
32761;BME280;19126;47.472;7.850;2022-12-11T09:34:53;95976.03;;;-2.66;100.00
32761;BME280;19126;47.472;7.850;2022-12-11T09:37:21;95965.75;;;-2.66;100.00
32761;BME280;19126;47.472;7.850;2022-12-11T09:39:48;95958.38;;;-2.71;100.00
32761;BME280;19126;47.472;7.850;2022-12-11T09:42:20;95957.34;;;-2.68;100.00
32761;BME280;19126;47.472;7.850;2022-12-11T09:44:54;95966.06;;;-2.95;100.00
32761;BME280;19126;47.472;7.850;2022-12-11T09:47:30;95953.19;;;-2.82;100.00
32761;BME280;19126;47.472;7.850;2022-12-11T09:50:11;95951.53;;;-2.83;100.00
32761;BME280;19126;47.472;7.850;2022-12-11T09:52:50;95942.75;;;-2.68;100.00
32761;BME280;19126;47.472;7.850;2022-12-11T09:55:23;95945.28;;;-2.55;100.00
32761;BME280;19126;47.472;7.850;2022-12-11T09:57:58;95936.69;;;-2.42;100.00
32761;BME280;19126;47.472;7.850;2022-12-11T10:00:35;95939.84;;;-2.39;100.00
32761;BME280;19126;47.472;7.850;2022-12-11T10:06:32;95930.25;;;-2.12;100.00
32761;BME280;19126;47.472;7.850;2022-12-11T10:09:08;95918.91;;;-1.98;100.00
32761;BME280;19126;47.472;7.850;2022-12-11T10:11:55;95920.00;;;-1.89;100.00
32761;BME280;19126;47.472;7.850;2022-12-11T10:14:35;95922.19;;;-1.96;100.00
32761;BME280;19126;47.472;7.850;2022-12-11T10:17:14;95906.16;;;-2.11;100.00
32761;BME280;19126;47.472;7.850;2022-12-11T10:19:44;95904.00;;;-2.29;100.00
32761;BME280;19126;47.472;7.850;2022-12-11T10:22:20;95900.28;;;-2.13;100.00
32761;BME280;19126;47.472;7.850;2022-12-11T10:24:58;95892.00;;;-2.06;100.00
32761;BME280;19126;47.472;7.850;2022-12-11T10:27:30;95897.84;;;-2.03;100.00
32761;BME280;19126;47.472;7.850;2022-12-11T10:30:12;95891.22;;;-1.83;100.00
32761;BME280;19126;47.472;7.850;2022-12-11T10:32:50;95892.16;;;-1.73;100.00
32761;BME280;19126;47.472;7.850;2022-12-11T10:35:29;95885.72;;;-1.44;100.00
32761;BME280;19126;47.472;7.850;2022-12-11T10:38:12;95884.44;;;-1.27;100.00
32761;BME280;19126;47.472;7.850;2022-12-11T10:40:47;95875.88;;;-1.16;100.00
32761;BME280;19126;47.472;7.850;2022-12-11T10:43:16;95882.75;;;-1.06;100.00
32761;BME280;19126;47.472;7.850;2022-12-11T10:45:51;95873.16;;;-1.04;100.00
32761;BME280;19126;47.472;7.850;2022-12-11T10:48:18;95868.38;;;-1.08;100.00
32761;BME280;19126;47.472;7.850;2022-12-11T10:50:57;95864.97;;;-1.20;100.00
32761;BME280;19126;47.472;7.850;2022-12-11T10:53:29;95861.69;;;-1.11;100.00
32761;BME280;19126;47.472;7.850;2022-12-11T10:55:57;95860.75;;;-1.10;100.00
32761;BME280;19126;47.472;7.850;2022-12-11T10:58:28;95855.00;;;-1.02;100.00
32761;BME280;19126;47.472;7.850;2022-12-11T11:01:09;95856.28;;;-1.08;100.00
32761;BME280;19126;47.472;7.850;2022-12-11T11:03:52;95846.56;;;-1.04;100.00
32761;BME280;19126;47.472;7.850;2022-12-11T11:06:22;95855.94;;;-1.03;100.00
32761;BME280;19126;47.472;7.850;2022-12-11T11:08:52;95850.88;;;-1.05;100.00
32761;BME280;19126;47.472;7.850;2022-12-11T11:11:25;95854.84;;;-1.00;100.00
32761;BME280;19126;47.472;7.850;2022-12-11T11:14:06;95855.81;;;-1.13;100.00
32761;BME280;19126;47.472;7.850;2022-12-11T11:16:38;95851.50;;;-1.12;100.00
32761;BME280;19126;47.472;7.850;2022-12-11T11:19:16;95852.22;;;-1.33;100.00
32761;BME280;19126;47.472;7.850;2022-12-11T11:21:49;95850.91;;;-1.16;100.00
32761;BME280;19126;47.472;7.850;2022-12-11T11:24:33;95843.63;;;-1.11;100.00
32761;BME280;19126;47.472;7.850;2022-12-11T11:27:10;95841.19;;;-1.12;100.00
32761;BME280;19126;47.472;7.850;2022-12-11T11:29:38;95836.53;;;-1.30;100.00
32761;BME280;19126;47.472;7.850;2022-12-11T11:32:16;95839.34;;;-1.33;99.76
32761;BME280;19126;47.472;7.850;2022-12-11T11:34:45;95839.81;;;-1.51;98.42
32761;BME280;19126;47.472;7.850;2022-12-11T11:37:25;95828.13;;;-1.55;100.00
32761;BME280;19126;47.472;7.850;2022-12-11T11:40:10;95831.31;;;-1.74;100.00
32761;BME280;19126;47.472;7.850;2022-12-11T11:42:48;95830.38;;;-1.62;100.00
32761;BME280;19126;47.472;7.850;2022-12-11T11:45:25;95824.63;;;-1.77;100.00
32761;BME280;19126;47.472;7.850;2022-12-11T11:48:04;95801.91;;;-1.83;100.00
32761;BME280;19126;47.472;7.850;2022-12-11T11:50:36;95813.75;;;-1.80;100.00
32761;BME280;19126;47.472;7.850;2022-12-11T11:53:14;95815.63;;;-1.59;100.00
32761;BME280;19126;47.472;7.850;2022-12-11T11:55:53;95809.06;;;-1.52;100.00
32761;BME280;19126;47.472;7.850;2022-12-11T11:58:31;95804.00;;;-1.54;100.00
32761;BME280;19126;47.472;7.850;2022-12-11T12:01:12;95791.81;;;-1.40;100.00
32761;BME280;19126;47.472;7.850;2022-12-11T12:03:42;95785.59;;;-1.38;100.00
32761;BME280;19126;47.472;7.850;2022-12-11T12:06:15;95790.97;;;-1.29;100.00
32761;BME280;19126;47.472;7.850;2022-12-11T12:08:53;95787.00;;;-1.34;100.00
32761;BME280;19126;47.472;7.850;2022-12-11T12:11:31;95789.56;;;-1.34;100.00
32761;BME280;19126;47.472;7.850;2022-12-11T12:14:09;95789.59;;;-1.45;100.00
32761;BME280;19126;47.472;7.850;2022-12-11T12:16:49;95791.25;;;-1.55;100.00
32761;BME280;19126;47.472;7.850;2022-12-11T12:19:46;95793.22;;;-1.48;100.00
32761;BME280;19126;47.472;7.850;2022-12-11T12:22:43;95782.13;;;-1.48;100.00
32761;BME280;19126;47.472;7.850;2022-12-11T12:25:21;95797.31;;;-1.45;100.00
32761;BME280;19126;47.472;7.850;2022-12-11T12:27:59;95786.09;;;-1.44;100.00
32761;BME280;19126;47.472;7.850;2022-12-11T12:30:34;95788.44;;;-1.52;100.00
32761;BME280;19126;47.472;7.850;2022-12-11T12:33:21;95789.72;;;-1.58;100.00
32761;BME280;19126;47.472;7.850;2022-12-11T12:35:59;95788.31;;;-1.51;100.00
32761;BME280;19126;47.472;7.850;2022-12-11T12:38:43;95788.94;;;-1.70;100.00
32761;BME280;19126;47.472;7.850;2022-12-11T12:41:40;95780.72;;;-1.64;100.00
32761;BME280;19126;47.472;7.850;2022-12-11T12:44:16;95796.66;;;-1.58;100.00
32761;BME280;19126;47.472;7.850;2022-12-11T12:46:57;95799.91;;;-1.56;100.00
32761;BME280;19126;47.472;7.850;2022-12-11T12:49:36;95793.00;;;-1.56;100.00
32761;BME280;19126;47.472;7.850;2022-12-11T12:52:11;95792.53;;;-1.61;100.00
32761;BME280;19126;47.472;7.850;2022-12-11T12:54:40;95796.66;;;-1.58;100.00
32761;BME280;19126;47.472;7.850;2022-12-11T12:57:08;95801.56;;;-1.55;100.00
32761;BME280;19126;47.472;7.850;2022-12-11T12:59:40;95799.78;;;-1.55;100.00
32761;BME280;19126;47.472;7.850;2022-12-11T13:02:13;95803.44;;;-1.57;100.00
32761;BME280;19126;47.472;7.850;2022-12-11T13:04:55;95803.78;;;-1.62;100.00
32761;BME280;19126;47.472;7.850;2022-12-11T13:07:28;95803.53;;;-1.59;100.00
32761;BME280;19126;47.472;7.850;2022-12-11T13:10:04;95797.00;;;-1.63;100.00
32761;BME280;19126;47.472;7.850;2022-12-11T13:12:44;95802.63;;;-1.69;100.00
32761;BME280;19126;47.472;7.850;2022-12-11T13:15:37;95807.91;;;-1.71;100.00
32761;BME280;19126;47.472;7.850;2022-12-11T13:18:32;95809.19;;;-1.77;100.00
32761;BME280;19126;47.472;7.850;2022-12-11T13:21:21;95810.47;;;-1.82;100.00
32761;BME280;19126;47.472;7.850;2022-12-11T13:23:48;95804.41;;;-1.93;100.00
32761;BME280;19126;47.472;7.850;2022-12-11T13:26:28;95791.28;;;-2.01;100.00
32761;BME280;19126;47.472;7.850;2022-12-11T13:28:56;95806.84;;;-2.02;100.00
32761;BME280;19126;47.472;7.850;2022-12-11T13:31:35;95811.66;;;-1.98;100.00
32761;BME280;19126;47.472;7.850;2022-12-11T13:34:14;95814.09;;;-1.96;100.00
32761;BME280;19126;47.472;7.850;2022-12-11T13:36:46;95823.81;;;-2.00;100.00
32761;BME280;19126;47.472;7.850;2022-12-11T13:39:18;95821.00;;;-2.08;100.00
32761;BME280;19126;47.472;7.850;2022-12-11T13:41:50;95828.59;;;-2.07;100.00
32761;BME280;19126;47.472;7.850;2022-12-11T13:44:25;95822.88;;;-2.10;100.00
32761;BME280;19126;47.472;7.850;2022-12-11T13:46:58;95824.94;;;-2.27;100.00
32761;BME280;19126;47.472;7.850;2022-12-11T13:49:33;95820.25;;;-2.33;100.00
32761;BME280;19126;47.472;7.850;2022-12-11T13:52:03;95825.03;;;-2.40;100.00
32761;BME280;19126;47.472;7.850;2022-12-11T13:54:33;95828.06;;;-2.34;100.00
32761;BME280;19126;47.472;7.850;2022-12-11T13:57:15;95831.56;;;-2.47;100.00
32761;BME280;19126;47.472;7.850;2022-12-11T13:59:48;95840.31;;;-2.61;100.00
32761;BME280;19126;47.472;7.850;2022-12-11T14:02:24;95832.47;;;-2.59;100.00
32761;BME280;19126;47.472;7.850;2022-12-11T14:04:57;95831.59;;;-2.71;100.00
32761;BME280;19126;47.472;7.850;2022-12-11T14:07:29;95829.00;;;-2.71;100.00
32761;BME280;19126;47.472;7.850;2022-12-11T14:10:05;95828.53;;;-2.76;100.00
32761;BME280;19126;47.472;7.850;2022-12-11T14:12:35;95828.75;;;-2.80;100.00
32761;BME280;19126;47.472;7.850;2022-12-11T14:15:10;95822.41;;;-2.87;100.00
32761;BME280;19126;47.472;7.850;2022-12-11T14:17:42;95824.84;;;-2.97;100.00
32761;BME280;19126;47.472;7.850;2022-12-11T14:20:19;95827.66;;;-3.13;100.00
32761;BME280;19126;47.472;7.850;2022-12-11T14:23:03;95819.09;;;-3.25;100.00
32761;BME280;19126;47.472;7.850;2022-12-11T14:25:32;95828.88;;;-3.30;100.00